x

Diamond Shoals (41025) Wave Buoy

5:50am - Fri 30th Sep 2016 All times are EDT. -4 hours from GMT.

  • Sig Wave height 3.9ft
  • Swell Direction
  • Peak Period 8s
  • Average Period 6s
  • Wind
    4mph
  • Sea Temp 76°f
  • Air Temp 79°f
  • Sea Pressure 1016.4mb
  • Diamond Shoals
  • Diamond Shoals

More Historic Weather Station data

Upgrade to MSW Pro to gain access to the past 30 days of data for over 8000 Wavebouys and Weather Stations around the globe.

Join Pro

Comparision Forecast

View Surf forecast
   
Fri 09/30 5:50am 4ft 8s 6s 4
mph
1016.4mb 76f 79f
4:50am 3.5ft 8s 6s 2 4 mph 1016.2mb 76f 79f
3:50am 4ft 9s 6s 7
mph
1016.1mb 76f 79f
2:50am 4ft 9s 6s 11 13 mph 1016.2mb 76f 80f
1:50am 4ft 9s 6s 11 13 mph 1016.4mb 77f 80f
12:50am 4ft 10s 5s 13 16 mph 1016.7mb 77f 80f
Thu 09/29 11:50pm 4ft 9s 6s 13 16 mph 1016.9mb 78f 80f
10:50pm 3.5ft 8s 5s 16 20 mph 1017.2mb 78f 80f
9:50pm 3.5ft 10s 5s 16 18 mph 1016.8mb 78f 80f
8:50pm 3.5ft 8s 5s 16 18 mph 1016.8mb 78f 79f
7:50pm 3.5ft 11s 6s 13 16 mph 1016.7mb 78f 80f
6:50pm 3.5ft 9s 6s 9 11 mph 1016.5mb 78f 81f
5:50pm 3.5ft 9s 6s 4 7 mph 1016.1mb 79f 79f
4:50pm 3.5ft 7s 6s 2 4 mph 1016.1mb 79f 79f
3:50pm 3.5ft 10s 6s 4 7 mph 1016.4mb 80f 80f
2:50pm 3.5ft 7s 6s 4
mph
1016.3mb 84f 81f
1:50pm 3.5ft 10s 6s 2 4 mph 1016.7mb 84f 81f
12:50pm 3.5ft 7s 6s 2 4 mph 1017.3mb 83f 80f
11:50am 3.5ft 11s 6s 4
mph
1017mb 83f 80f
10:50am 3ft 11s 6s 9 11 mph 1016.7mb 83f 79f
9:50am 3.5ft 8s 6s 9 11 mph 1016.5mb 83f 79f
8:50am 3ft 11s 6s 7 9 mph 1016.2mb 81f 79f
7:50am 3.5ft 11s 6s 4 7 mph 1015.9mb 82f 79f
6:50am 3.5ft 11s 6s 4 7 mph 1015.3mb 81f 77f
5:50am 3.5ft 7s 6s 9 13 mph 1015mb 81f 76f
4:50am 3.5ft 11s 6s 11 13 mph 1015.3mb 80f 80f
3:50am 3.5ft 7s 6s 7 9 mph 1015.5mb 80f 81f
2:50am 4ft 8s 6s 9 13 mph 1016mb 82f 81f
1:50am 4ft 8s 6s 13 16 mph 1015.8mb 83f 81f
12:50am 4ft 8s 6s 11 13 mph 1015.9mb 83f 81f
Wed 09/28 11:50pm 3.5ft 7s 6s 16 18 mph 1016.1mb 83f 81f
10:50pm 3.5ft 7s 6s 16 20 mph 1016.1mb 83f 81f
9:50pm 3.5ft 7s 7s 11 13 mph 1016.6mb 84f 81f
8:50pm 3.5ft 11s 7s 7 9 mph 1016.8mb 84f 81f
7:50pm 3.5ft 7s 7s 7 9 mph 1015.7mb 84f 80f
6:50pm 3.5ft 11s 7s 7 11 mph 1015.3mb 84f 80f
5:50pm 3.5ft 11s 7s 4 7 mph 1015.1mb 84f 80f
4:50pm 3.5ft 8s 7s 7 9 mph 1015mb 84f 78f
3:50pm 3.5ft 7s 7s 7 9 mph 1015.2mb 84f 78f
2:50pm 3.5ft 11s 7s 7
mph
1015.4mb 84f 78f
1:50pm 3.5ft 7s 6s 4 7 mph 1015.3mb 84f 77f
12:50pm 4ft 8s 7s 7 9 mph 1015.7mb 84f 77f
11:50am 4ft 8s 6s 9 11 mph 1015.6mb 84f 77f
10:50am 4ft 8s 6s 11 13 mph 1015.3mb 83f 77f
9:50am 4ft 12s 6s 11 13 mph 1014.7mb 83f 76f
8:50am 4ft 7s 6s 11 13 mph 1013.9mb 84f 76f
7:50am 4.5ft 12s 6s 13 16 mph 1013.3mb 84f 77f
6:50am 4.5ft 7s 6s 11 16 mph 1012.9mb 84f 76f
5:50am 5ft 7s 7s 11 16 mph 1012.3mb 84f 77f
4:50am 4.5ft 7s 6s 11 13 mph 1012mb 84f 77f
3:50am 5ft 7s 6s 11 13 mph 1012.1mb 83f 77f
2:50am 5ft 7s 6s 11 13 mph 1011.9mb 83f 78f
1:50am 4.5ft 7s 6s 9 11 mph 1011.8mb 83f 79f
12:50am 5ft 7s 6s 11 13 mph 1011.6mb 84f 77f
Tue 09/27 11:50pm 5ft 7s 6s 13 18 mph 1011.6mb 84f 77f
10:50pm 5ft 7s 6s 16 18 mph 1011.7mb 84f 77f
9:50pm 4.5ft 7s 6s 9 11 mph 1012mb 84f 79f
8:50pm 4.5ft 7s 5s 9 11 mph 1011.9mb 84f 78f
7:50pm 5ft 7s 6s 11 13 mph 1011.5mb 84f 78f
6:50pm 5ft 7s 5s 16 20 mph 1011.1mb 84f 77f
5:50pm 4.5ft 6s 5s 11 16 mph 1011.8mb 84f 77f
4:50pm 4.5ft 6s 5s 13 16 mph 1012.1mb 84f 76f
3:50pm 4.5ft 6s 5s 16 20 mph 1012.3mb 84f 76f
2:50pm 4.5ft 6s 5s 22 25 mph 1012.2mb 84f 77f
1:50pm 4.5ft 6s 5s 20 25 mph 1012.9mb 84f 76f
12:50pm 4ft 5s 5s 18 22 mph 1013.8mb 84f 77f
11:50am 3.5ft 5s 5s 16 18 mph 1014.5mb 84f 78f
10:50am 3.5ft 6s 5s 18 22 mph 1015.1mb 84f 78f
9:50am 3.5ft 8s 5s 11 16 mph 1015.2mb 84f 79f
8:50am 3.5ft 6s 5s 11 13 mph 1015.2mb 84f 78f
7:50am 3.5ft 5s 5s 11 16 mph 1015.1mb 84f 80f
6:50am 3.5ft 9s 5s 13 18 mph 1014.6mb 84f 79f
5:50am 3.5ft 8s 5s 16 18 mph 1014.6mb 85f 79f
4:50am 3.5ft 9s 5s 11 13 mph 1015.1mb 85f 79f
3:50am 3.5ft 5s 5s 13 18 mph 1015.5mb 85f 79f
2:50am 3.5ft 5s 5s 16 18 mph 1016.2mb 85f 79f
1:50am 4ft 6s 5s 18 22 mph 1016.6mb 85f 79f
12:50am 3.5ft 7s 5s 18 22 mph 1016.7mb 85f 79f
Mon 09/26 11:50pm 3.5ft 8s 5s 18 20 mph 1017mb 84f 79f
10:50pm 3.5ft 8s 5s 18 22 mph 1017.6mb 84f 79f
9:50pm 3.5ft 4s 4s 18 20 mph 1018.1mb 83f 79f
8:50pm 3ft 7s 5s 16 20 mph 1018.2mb 81f 79f
7:50pm 2.5ft 8s 5s 18 20 mph 1017.8mb 80f 79f
6:50pm 2.5ft 8s 5s 11 16 mph 1017.8mb 80f 78f
5:50pm 2.5ft 8s 5s 13 16 mph 1017.5mb 79f 79f
4:50pm 2.5ft 8s 5s 11 13 mph 1017.7mb 79f 78f
3:50pm 3ft 8s 5s 9 11 mph 1018.1mb 79f 78f
2:50pm 3ft 8s 5s 9 13 mph 1018.5mb 79f 78f
1:50pm 3ft 8s 5s 9 11 mph 1019mb 78f 78f
12:50pm 3.5ft 8s 5s 7 9 mph 1019.8mb 78f 78f
11:50am 3.5ft 8s 5s 4 7 mph 1019.9mb 78f 77f